createdAt,value
2022-10-07T00:01:12.562Z,17.92
2022-10-07T00:03:41.727Z,18.15
2022-10-07T00:06:13.462Z,20.42
2022-10-07T00:08:43.848Z,18.13
2022-10-07T00:11:13.977Z,18.88
2022-10-07T00:13:45.144Z,19.73
2022-10-07T00:16:15.149Z,19.63
2022-10-07T00:18:44.581Z,19.63
2022-10-07T00:21:15.387Z,22.23
2022-10-07T00:23:44.638Z,21.27
2022-10-07T00:26:15.675Z,20.98
2022-10-07T00:28:45.350Z,22.00
2022-10-07T00:31:16.119Z,21.27
2022-10-07T00:33:44.699Z,22.23
2022-10-07T00:36:15.838Z,21.55
2022-10-07T00:38:44.225Z,21.05
2022-10-07T00:41:19.707Z,23.10
2022-10-07T00:43:49.971Z,23.38
2022-10-07T00:46:30.522Z,21.60
2022-10-07T00:49:02.592Z,20.90
2022-10-07T00:51:33.354Z,19.92
2022-10-07T00:54:04.855Z,21.10
2022-10-07T00:56:35.032Z,19.20
2022-10-07T00:59:05.670Z,19.50
2022-10-07T01:01:34.906Z,18.85
2022-10-07T01:04:04.572Z,20.45
2022-10-07T01:06:35.327Z,19.13
2022-10-07T01:09:03.562Z,19.25
2022-10-07T01:11:42.980Z,20.33
2022-10-07T01:14:22.729Z,19.00
2022-10-07T01:17:00.412Z,18.88
2022-10-07T01:19:52.859Z,19.40
2022-10-07T01:22:31.093Z,18.65
2022-10-07T01:25:18.560Z,17.48
2022-10-07T01:27:53.878Z,17.63
2022-10-07T01:30:22.408Z,18.52
2022-10-07T01:32:55.653Z,19.63
2022-10-07T01:35:26.429Z,19.02
2022-10-07T01:38:00.234Z,19.30
2022-10-07T01:40:38.300Z,18.63
2022-10-07T01:43:08.329Z,18.90
2022-10-07T01:45:40.240Z,19.48
2022-10-07T01:48:09.032Z,18.20
2022-10-07T01:50:38.324Z,17.63
2022-10-07T01:53:25.417Z,18.30
2022-10-07T01:56:12.001Z,18.70
2022-10-07T01:58:57.044Z,18.27
2022-10-07T02:01:34.608Z,17.60
2022-10-07T02:04:22.340Z,18.52
2022-10-07T02:07:01.753Z,19.05
2022-10-07T02:09:35.409Z,18.27
2022-10-07T02:12:13.290Z,20.50
2022-10-07T02:14:50.036Z,19.13
2022-10-07T02:17:21.614Z,16.80
2022-10-07T02:19:55.607Z,18.05
2022-10-07T02:22:28.519Z,18.63
2022-10-07T02:24:59.831Z,17.85
2022-10-07T02:27:35.835Z,18.10
2022-10-07T02:30:12.133Z,17.58
2022-10-07T02:32:51.763Z,17.92
2022-10-07T02:35:25.517Z,18.17
2022-10-07T02:37:57.270Z,18.50
2022-10-07T02:40:33.551Z,19.15
2022-10-07T02:43:05.472Z,18.83
2022-10-07T02:45:41.690Z,18.20
2022-10-07T02:48:17.702Z,18.63
2022-10-07T02:50:51.741Z,18.20
2022-10-07T02:53:21.896Z,17.30
2022-10-07T02:55:52.751Z,17.90
2022-10-07T02:58:24.280Z,17.35
2022-10-07T03:00:58.588Z,17.52
2022-10-07T03:03:27.674Z,17.58
2022-10-07T03:06:05.704Z,18.05
2022-10-07T03:08:36.534Z,17.92
2022-10-07T03:11:04.762Z,17.30
2022-10-07T03:13:35.261Z,16.95
2022-10-07T03:16:05.759Z,16.27
2022-10-07T03:18:34.553Z,16.70
2022-10-07T03:21:16.293Z,17.58
2022-10-07T03:23:45.162Z,17.58
2022-10-07T03:26:14.041Z,16.23
2022-10-07T03:28:42.945Z,17.48
2022-10-07T03:31:15.353Z,16.25
2022-10-07T03:33:56.951Z,17.45
2022-10-07T03:36:28.268Z,16.80
2022-10-07T03:38:57.349Z,16.75
2022-10-07T03:41:26.574Z,15.85
2022-10-07T03:43:59.383Z,14.80
2022-10-07T03:46:30.437Z,15.40
2022-10-07T03:48:58.645Z,16.38
2022-10-07T03:51:27.930Z,16.33
2022-10-07T03:53:57.655Z,15.77
2022-10-07T03:56:28.688Z,14.13
2022-10-07T03:58:57.081Z,15.95
2022-10-07T04:01:26.699Z,14.70
2022-10-07T04:04:01.295Z,13.85
2022-10-07T04:06:33.142Z,15.40
2022-10-07T04:09:05.363Z,14.50
2022-10-07T04:11:33.722Z,13.90
2022-10-07T04:14:02.107Z,14.38
2022-10-07T04:16:35.828Z,15.10
2022-10-07T04:19:08.881Z,15.00
2022-10-07T04:21:37.144Z,15.80
2022-10-07T04:24:06.469Z,14.73
2022-10-07T04:26:36.304Z,13.63
2022-10-07T04:29:04.497Z,13.73
2022-10-07T04:31:33.035Z,14.10
2022-10-07T04:34:05.699Z,13.93
2022-10-07T04:36:39.066Z,14.18
2022-10-07T04:39:16.255Z,13.70
2022-10-07T04:41:54.710Z,14.70
2022-10-07T04:44:27.397Z,13.57
2022-10-07T04:47:01.229Z,13.85
2022-10-07T04:49:31.726Z,13.05
2022-10-07T04:52:03.850Z,13.85
2022-10-07T04:54:39.384Z,13.13
2022-10-07T04:57:10.066Z,13.98
2022-10-07T04:59:42.573Z,14.23
2022-10-07T05:02:12.915Z,12.77
2022-10-07T05:04:41.306Z,13.55
2022-10-07T05:07:11.032Z,12.32
2022-10-07T05:09:39.794Z,13.35
2022-10-07T05:12:09.038Z,13.93
2022-10-07T05:14:37.554Z,13.80
2022-10-07T05:17:06.368Z,13.93
2022-10-07T05:19:36.783Z,13.05
2022-10-07T05:22:07.257Z,14.13
2022-10-07T05:24:38.418Z,12.88
2022-10-07T05:27:07.172Z,13.65
2022-10-07T05:29:35.493Z,13.52
2022-10-07T05:32:05.156Z,13.90
2022-10-07T05:34:34.719Z,13.18
2022-10-07T05:37:02.978Z,12.82
2022-10-07T05:39:31.221Z,13.40
2022-10-07T05:42:08.307Z,13.77
2022-10-07T05:44:43.394Z,13.38
2022-10-07T05:47:14.179Z,13.88
2022-10-07T05:49:43.241Z,13.48
2022-10-07T05:52:11.750Z,13.38
2022-10-07T05:54:41.135Z,13.15
2022-10-07T05:57:11.566Z,13.80
2022-10-07T05:59:39.778Z,13.77
2022-10-07T06:02:08.767Z,11.82
2022-10-07T06:04:37.256Z,13.45
2022-10-07T06:07:05.518Z,12.38
2022-10-07T06:09:52.085Z,13.10
2022-10-07T06:12:38.947Z,13.07
2022-10-07T06:15:12.144Z,13.52
2022-10-07T06:17:44.778Z,14.25
2022-10-07T06:20:15.352Z,13.25
2022-10-07T06:22:45.174Z,13.77
2022-10-07T06:25:15.594Z,13.73
2022-10-07T06:27:51.092Z,12.23
2022-10-07T06:30:22.259Z,12.10
2022-10-07T06:32:50.487Z,11.82
2022-10-07T06:35:18.936Z,11.80
2022-10-07T06:37:47.865Z,11.32
2022-10-07T06:40:16.733Z,13.07
2022-10-07T06:42:46.322Z,12.02
2022-10-07T06:45:43.853Z,11.55
2022-10-07T06:48:13.846Z,11.60
2022-10-07T06:50:51.413Z,11.77
2022-10-07T06:53:20.376Z,12.57
2022-10-07T06:55:51.579Z,11.85
2022-10-07T06:58:23.533Z,11.95
2022-10-07T07:00:52.937Z,10.73
2022-10-07T07:03:23.848Z,12.05
2022-10-07T07:05:54.679Z,11.07
2022-10-07T07:08:29.278Z,10.75
2022-10-07T07:10:57.695Z,10.88
2022-10-07T07:13:27.323Z,9.80
2022-10-07T07:15:56.337Z,9.48
2022-10-07T07:18:26.454Z,10.23
2022-10-07T07:20:55.117Z,9.85
2022-10-07T07:23:24.669Z,8.70
2022-10-07T07:25:53.093Z,8.98
2022-10-07T07:28:21.456Z,9.60
2022-10-07T07:30:51.190Z,9.23
2022-10-07T07:33:19.914Z,8.93
2022-10-07T07:35:48.905Z,7.97
2022-10-07T07:38:20.165Z,8.63
2022-10-07T07:40:50.609Z,7.40
2022-10-07T07:43:18.849Z,7.07
2022-10-07T07:45:47.220Z,7.30
2022-10-07T07:48:16.796Z,7.03
2022-10-07T07:50:45.751Z,7.53
2022-10-07T07:53:13.985Z,6.25
2022-10-07T07:55:52.261Z,6.00
2022-10-07T07:58:21.714Z,6.07
2022-10-07T08:00:59.662Z,6.70
2022-10-07T08:03:29.467Z,6.60
2022-10-07T08:06:01.892Z,5.28
2022-10-07T08:08:31.674Z,5.70
2022-10-07T08:11:08.075Z,5.80
2022-10-07T08:13:36.620Z,5.43
2022-10-07T08:16:05.394Z,5.43
2022-10-07T08:18:35.772Z,5.45
2022-10-07T08:21:07.653Z,5.15
2022-10-07T08:23:36.207Z,4.75
2022-10-07T08:26:04.674Z,5.22
2022-10-07T08:28:35.013Z,4.45
2022-10-07T08:31:05.324Z,4.45
2022-10-07T08:33:36.566Z,4.20
2022-10-07T08:36:07.014Z,4.13
2022-10-07T08:38:36.956Z,3.88
2022-10-07T08:41:25.953Z,4.57
2022-10-07T08:43:54.178Z,3.90
2022-10-07T08:46:28.033Z,4.38
2022-10-07T08:49:03.797Z,4.05
2022-10-07T08:51:38.900Z,4.10
2022-10-07T08:54:07.773Z,4.07
2022-10-07T08:56:35.954Z,4.20
2022-10-07T08:59:17.242Z,3.83
2022-10-07T09:01:56.534Z,3.78
2022-10-07T09:04:37.309Z,3.67
2022-10-07T09:07:10.118Z,3.70
2022-10-07T09:09:42.795Z,3.42
2022-10-07T09:12:24.714Z,4.00
2022-10-07T09:14:56.968Z,3.00
2022-10-07T09:17:34.985Z,3.28
2022-10-07T09:20:08.020Z,3.80
2022-10-07T09:22:39.448Z,2.60
2022-10-07T09:25:20.692Z,2.63
2022-10-07T09:27:50.510Z,2.45
2022-10-07T09:30:20.052Z,2.33
2022-10-07T09:32:50.137Z,2.65
2022-10-07T09:35:23.175Z,2.75
2022-10-07T09:38:00.381Z,3.10
2022-10-07T09:41:03.120Z,2.35
2022-10-07T09:43:33.765Z,2.58
2022-10-07T09:46:02.530Z,2.53
2022-10-07T09:48:34.402Z,2.42
2022-10-07T09:51:18.296Z,2.20
2022-10-07T09:53:58.751Z,2.25
2022-10-07T09:56:39.247Z,1.98
2022-10-07T09:59:23.471Z,2.33
2022-10-07T10:01:53.772Z,1.98
2022-10-07T10:04:28.126Z,1.95
2022-10-07T10:07:01.655Z,2.25
2022-10-07T10:09:30.068Z,2.05
2022-10-07T10:12:14.249Z,2.67
2022-10-07T10:14:47.980Z,2.47
2022-10-07T10:17:31.658Z,2.58
2022-10-07T10:20:39.712Z,2.17
2022-10-07T10:23:29.339Z,2.00
2022-10-07T10:26:33.634Z,2.10
2022-10-07T10:29:18.476Z,2.47
2022-10-07T10:31:59.130Z,2.00
2022-10-07T10:34:38.363Z,2.47
2022-10-07T10:37:15.147Z,2.80
2022-10-07T10:40:03.669Z,2.60
2022-10-07T10:42:45.364Z,2.45
2022-10-07T10:45:26.295Z,2.25
2022-10-07T10:48:11.357Z,2.28
2022-10-07T10:50:49.056Z,2.05
2022-10-07T10:53:33.365Z,2.80
2022-10-07T10:56:18.481Z,2.55
2022-10-07T10:58:58.372Z,2.63
2022-10-07T11:01:33.661Z,2.15
2022-10-07T11:04:27.785Z,2.20
2022-10-07T11:06:59.818Z,2.17
2022-10-07T11:09:34.940Z,2.30
2022-10-07T11:12:10.720Z,2.13
2022-10-07T11:14:45.645Z,2.60
2022-10-07T11:17:17.246Z,2.30
2022-10-07T11:19:54.715Z,2.00
2022-10-07T11:22:33.393Z,1.90
2022-10-07T11:25:09.737Z,2.13
2022-10-07T11:27:40.950Z,2.35
2022-10-07T11:30:18.657Z,1.95
2022-10-07T11:32:54.916Z,1.77
2022-10-07T11:35:28.711Z,1.80
2022-10-07T11:38:04.258Z,2.33
2022-10-07T11:40:36.199Z,1.90
2022-10-07T11:43:14.882Z,2.30
2022-10-07T11:45:49.936Z,2.65
2022-10-07T11:48:24.586Z,2.10
2022-10-07T11:50:56.504Z,2.45
2022-10-07T11:53:28.423Z,2.10
2022-10-07T11:56:01.233Z,2.20
2022-10-07T11:58:36.205Z,1.73
2022-10-07T12:01:41.137Z,1.90
2022-10-07T12:04:41.515Z,2.20
2022-10-07T12:07:36.276Z,2.00
2022-10-07T12:10:34.733Z,2.20
2022-10-07T12:13:37.825Z,1.88
2022-10-07T12:16:53.227Z,2.40
2022-10-07T12:19:23.890Z,2.22
2022-10-07T12:22:25.652Z,2.17
2022-10-07T12:25:32.296Z,1.75
2022-10-07T12:28:01.428Z,2.47
2022-10-07T12:30:50.014Z,2.33
2022-10-07T12:33:29.604Z,2.05
2022-10-07T12:35:57.876Z,1.95
2022-10-07T12:38:28.524Z,2.10
2022-10-07T12:41:25.129Z,2.10
2022-10-07T12:44:01.334Z,2.63
2022-10-07T12:46:34.508Z,1.90
2022-10-07T12:49:07.587Z,1.90
2022-10-07T12:51:39.538Z,2.15
2022-10-07T12:54:16.130Z,2.30
2022-10-07T12:56:45.891Z,2.17
2022-10-07T12:59:49.630Z,2.10
2022-10-07T13:02:42.162Z,2.05
2022-10-07T13:05:45.151Z,2.00
2022-10-07T13:09:02.791Z,2.30
2022-10-07T13:12:01.952Z,2.17
2022-10-07T13:14:37.034Z,2.22
2022-10-07T13:17:20.995Z,2.17
2022-10-07T13:19:56.920Z,2.28
2022-10-07T13:22:26.864Z,2.22
2022-10-07T13:24:57.533Z,2.42
2022-10-07T13:27:28.195Z,2.38
2022-10-07T13:29:57.960Z,2.45
2022-10-07T13:32:29.817Z,2.30
2022-10-07T13:35:01.397Z,2.17
2022-10-07T13:37:31.480Z,2.50
2022-10-07T13:40:20.299Z,2.25
2022-10-07T13:42:54.628Z,2.10
2022-10-07T13:45:23.350Z,2.55
2022-10-07T13:47:51.966Z,2.45
2022-10-07T13:50:26.319Z,3.10
2022-10-07T13:52:56.639Z,2.42
2022-10-07T13:55:29.600Z,2.83
2022-10-07T13:58:00.893Z,2.78
2022-10-07T14:00:29.935Z,2.90
2022-10-07T14:02:58.239Z,2.42
2022-10-07T14:05:29.640Z,2.20
2022-10-07T14:07:59.458Z,2.58
2022-10-07T14:10:30.058Z,2.65
2022-10-07T14:13:00.007Z,2.13
2022-10-07T14:15:30.241Z,2.58
2022-10-07T14:18:00.632Z,2.67
2022-10-07T14:20:33.289Z,2.70
2022-10-07T14:23:05.523Z,2.95
2022-10-07T14:25:50.384Z,2.92
2022-10-07T14:28:20.327Z,2.60
2022-10-07T14:31:27.945Z,3.08
2022-10-07T14:34:18.904Z,2.88
2022-10-07T14:37:04.408Z,2.83
2022-10-07T14:39:36.295Z,2.80
2022-10-07T14:42:05.517Z,2.95
2022-10-07T14:44:33.774Z,2.92
2022-10-07T14:47:06.969Z,2.85
2022-10-07T14:49:35.674Z,2.85
2022-10-07T14:52:06.363Z,4.38
2022-10-07T14:54:35.942Z,6.43
2022-10-07T14:57:04.076Z,20.23
2022-10-07T14:59:32.266Z,5.07
2022-10-07T15:02:00.760Z,7.68
2022-10-07T15:04:29.046Z,3.88
2022-10-07T15:06:58.074Z,3.65
2022-10-07T15:09:27.612Z,7.47
2022-10-07T15:11:56.245Z,4.22
2022-10-07T15:14:24.408Z,4.00
2022-10-07T15:16:52.672Z,3.20
2022-10-07T15:19:20.846Z,3.45
2022-10-07T15:21:49.090Z,3.88
2022-10-07T15:24:17.315Z,4.00
2022-10-07T15:26:47.055Z,3.70
2022-10-07T15:29:15.448Z,3.25
2022-10-07T15:31:44.485Z,4.35
2022-10-07T15:34:14.397Z,3.70
2022-10-07T15:36:43.419Z,3.85
2022-10-07T15:39:11.968Z,3.67
2022-10-07T15:41:41.689Z,3.80
2022-10-07T15:44:16.086Z,3.60
2022-10-07T15:46:44.676Z,4.38
2022-10-07T15:49:13.291Z,3.80
2022-10-07T15:51:42.542Z,4.22
2022-10-07T15:54:12.088Z,4.40
2022-10-07T15:56:40.483Z,3.78
2022-10-07T15:59:08.727Z,4.10
2022-10-07T16:01:38.312Z,3.92
2022-10-07T16:04:06.678Z,3.88
2022-10-07T16:06:36.970Z,4.07
2022-10-07T16:09:05.951Z,4.32
2022-10-07T16:11:35.394Z,4.15
2022-10-07T16:14:04.056Z,4.30
2022-10-07T16:16:33.689Z,4.20
2022-10-07T16:19:03.676Z,3.95
2022-10-07T16:21:33.900Z,4.43
2022-10-07T16:24:04.116Z,4.55
2022-10-07T16:26:34.682Z,4.68
2022-10-07T16:29:22.169Z,4.65
2022-10-07T16:31:54.501Z,4.82
2022-10-07T16:34:28.189Z,5.10
2022-10-07T16:36:57.272Z,4.88
2022-10-07T16:39:25.783Z,5.20
2022-10-07T16:41:54.328Z,5.15
2022-10-07T16:44:22.629Z,5.25
2022-10-07T16:46:56.410Z,5.82
2022-10-07T16:49:27.667Z,5.60
2022-10-07T16:51:56.471Z,6.53
2022-10-07T16:54:25.226Z,6.82
2022-10-07T16:56:53.877Z,6.57
2022-10-07T16:59:24.093Z,6.75
2022-10-07T17:01:54.759Z,6.50
2022-10-07T17:04:23.574Z,6.63
2022-10-07T17:06:53.483Z,6.80
2022-10-07T17:09:24.775Z,6.63
2022-10-07T17:11:53.287Z,6.50
2022-10-07T17:14:23.102Z,6.95
2022-10-07T17:16:53.117Z,6.97
2022-10-07T17:19:22.765Z,6.70
2022-10-07T17:21:53.554Z,7.20
2022-10-07T17:24:22.988Z,7.43
2022-10-07T17:26:53.063Z,7.35
2022-10-07T17:29:23.454Z,7.13
2022-10-07T17:31:51.950Z,7.40
2022-10-07T17:34:21.634Z,7.90
2022-10-07T17:36:50.636Z,8.00
2022-10-07T17:39:20.697Z,8.07
2022-10-07T17:41:49.112Z,7.90
2022-10-07T17:44:17.393Z,8.90
2022-10-07T17:46:45.721Z,9.38
2022-10-07T17:49:14.390Z,8.15
2022-10-07T17:51:43.854Z,8.60
2022-10-07T17:54:13.959Z,7.68
2022-10-07T17:56:46.083Z,7.88
2022-10-07T17:59:14.595Z,6.80
2022-10-07T18:01:43.321Z,7.03
2022-10-07T18:04:14.824Z,7.57
2022-10-07T18:06:43.964Z,7.78
2022-10-07T18:09:15.111Z,6.72
2022-10-07T18:12:03.393Z,6.40
2022-10-07T18:14:53.238Z,6.35
2022-10-07T18:17:22.629Z,6.97
2022-10-07T18:19:50.986Z,6.05
2022-10-07T18:22:19.384Z,6.93
2022-10-07T18:24:47.708Z,6.40
2022-10-07T18:27:17.518Z,6.80
2022-10-07T18:29:45.941Z,6.18
2022-10-07T18:32:14.200Z,6.57
2022-10-07T18:34:42.486Z,6.32
2022-10-07T18:37:10.733Z,6.53
2022-10-07T18:39:39.184Z,6.35
2022-10-07T18:42:07.579Z,7.15
2022-10-07T18:44:37.215Z,7.10
2022-10-07T18:47:05.592Z,7.53
2022-10-07T18:49:33.752Z,6.90
2022-10-07T18:52:02.358Z,6.68
2022-10-07T18:54:31.766Z,6.80
2022-10-07T18:57:00.177Z,7.28
2022-10-07T18:59:28.445Z,6.95
2022-10-07T19:01:58.270Z,7.05
2022-10-07T19:04:26.705Z,7.50
2022-10-07T19:06:54.932Z,7.00
2022-10-07T19:09:23.748Z,7.18
2022-10-07T19:11:52.068Z,6.63
2022-10-07T19:14:20.198Z,7.43
2022-10-07T19:16:50.335Z,7.55
2022-10-07T19:19:22.075Z,7.05
2022-10-07T19:21:51.905Z,7.57
2022-10-07T19:24:20.907Z,7.72
2022-10-07T19:26:51.398Z,8.15
2022-10-07T19:29:19.967Z,8.63
2022-10-07T19:31:50.126Z,7.80
2022-10-07T19:34:21.531Z,8.10
2022-10-07T19:36:50.734Z,8.27
2022-10-07T19:39:21.080Z,9.05
2022-10-07T19:41:51.156Z,8.63
2022-10-07T19:44:20.158Z,7.85
2022-10-07T19:46:52.452Z,7.57
2022-10-07T19:49:22.395Z,8.57
2022-10-07T19:51:50.677Z,8.18
2022-10-07T19:54:18.937Z,9.02
2022-10-07T19:56:47.314Z,8.13
2022-10-07T19:59:15.998Z,8.90
2022-10-07T20:01:47.468Z,9.73
2022-10-07T20:04:20.043Z,8.45
2022-10-07T20:06:49.817Z,8.43
2022-10-07T20:09:19.318Z,8.10
2022-10-07T20:11:47.908Z,9.10
2022-10-07T20:14:16.385Z,9.95
2022-10-07T20:16:44.716Z,9.95
2022-10-07T20:19:15.697Z,8.40
2022-10-07T20:21:44.195Z,9.02
2022-10-07T20:24:16.288Z,8.48
2022-10-07T20:26:45.316Z,9.00
2022-10-07T20:29:16.209Z,9.88
2022-10-07T20:31:45.342Z,8.63
2022-10-07T20:34:15.854Z,8.77
2022-10-07T20:36:44.223Z,9.15
2022-10-07T20:39:35.224Z,8.90
2022-10-07T20:42:22.290Z,9.02
2022-10-07T20:44:51.482Z,9.43
2022-10-07T20:47:21.522Z,9.70
2022-10-07T20:49:51.527Z,9.13
2022-10-07T20:52:21.662Z,10.85
2022-10-07T20:54:52.306Z,9.02
2022-10-07T20:57:22.293Z,9.57
2022-10-07T20:59:50.658Z,10.02
2022-10-07T21:02:21.696Z,10.25
2022-10-07T21:04:50.087Z,11.35
2022-10-07T21:07:19.479Z,10.25
2022-10-07T21:09:48.417Z,10.27
2022-10-07T21:12:18.962Z,10.82
2022-10-07T21:14:48.650Z,10.85
2022-10-07T21:17:17.605Z,9.40
2022-10-07T21:19:45.929Z,9.52
2022-10-07T21:22:14.328Z,9.70
2022-10-07T21:24:42.497Z,9.40
2022-10-07T21:27:10.661Z,10.20
2022-10-07T21:29:41.226Z,9.15
2022-10-07T21:32:10.728Z,10.25
2022-10-07T21:34:39.559Z,9.52
2022-10-07T21:37:08.189Z,9.82
2022-10-07T21:39:36.409Z,10.00
2022-10-07T21:42:04.998Z,9.38
2022-10-07T21:44:34.814Z,9.38
2022-10-07T21:47:05.455Z,10.30
2022-10-07T21:49:33.614Z,8.80
2022-10-07T21:52:01.805Z,9.93
2022-10-07T21:54:32.498Z,10.15
2022-10-07T21:57:00.803Z,9.70
2022-10-07T21:59:33.101Z,9.55
2022-10-07T22:02:01.301Z,9.27
2022-10-07T22:04:30.908Z,10.30
2022-10-07T22:07:16.696Z,10.23
2022-10-07T22:09:44.896Z,10.02
2022-10-07T22:12:15.364Z,10.68
2022-10-07T22:14:44.598Z,10.23
2022-10-07T22:17:14.381Z,10.77
2022-10-07T22:19:43.948Z,10.68
2022-10-07T22:22:13.065Z,10.27
2022-10-07T22:24:42.368Z,10.65
2022-10-07T22:27:10.727Z,10.20
2022-10-07T22:29:39.343Z,11.07
2022-10-07T22:32:07.522Z,10.13
2022-10-07T22:34:52.986Z,12.05
2022-10-07T22:37:22.582Z,10.30
2022-10-07T22:39:50.735Z,10.05
2022-10-07T22:42:19.484Z,10.52
2022-10-07T22:44:47.655Z,10.68
2022-10-07T22:47:16.418Z,10.63
2022-10-07T22:49:44.582Z,10.35
2022-10-07T22:52:12.826Z,10.80
2022-10-07T22:54:42.419Z,11.75
2022-10-07T22:57:10.718Z,10.90
2022-10-07T22:59:38.999Z,11.05
2022-10-07T23:02:07.192Z,11.75
2022-10-07T23:04:35.319Z,11.35
2022-10-07T23:07:03.546Z,11.43
2022-10-07T23:09:31.704Z,11.65
2022-10-07T23:12:01.250Z,12.27
2022-10-07T23:14:29.353Z,11.23
2022-10-07T23:16:57.512Z,11.07
2022-10-07T23:19:26.141Z,11.05
2022-10-07T23:21:54.297Z,12.27
2022-10-07T23:24:22.486Z,11.75
2022-10-07T23:26:50.838Z,11.85
2022-10-07T23:29:20.702Z,10.90
2022-10-07T23:31:48.962Z,12.25
2022-10-07T23:34:18.552Z,11.50
2022-10-07T23:36:46.765Z,11.82
2022-10-07T23:39:14.899Z,12.68
2022-10-07T23:41:43.122Z,11.48
2022-10-07T23:44:11.344Z,11.75
2022-10-07T23:46:40.893Z,12.65
2022-10-07T23:49:09.162Z,11.73
2022-10-07T23:51:37.270Z,12.00
2022-10-07T23:54:06.336Z,12.00
2022-10-07T23:56:34.948Z,11.55
2022-10-07T23:59:03.374Z,12.15
